Latest Weather Observations for Inner Beacon

IDQ60801

Issued at 1:36 am EST Tuesday 27 June 2017 (issued every 30 minutes, with the page automatically refreshed every 10 minutes)

About weather observations | Map of weather stations | Latest weather observations for QLD | Other Formats
Station Details ID: 040926 Name: INNER RECIPROCAL MARKER Lat: -27.26 Lon: 153.24 Height: 20.0 m
Data from the previous 72 hours. | See also: Recent months for locations in Queensland
Date/Time
EST
Temp
°C
App
Temp
°C
Dew
Point
°C
Rel
Hum
%
Delta-T
°C
Wind Press
QNH
hPa
Press
MSL
hPa
Rain since
9am
mm
Dir  Spd
km/h
Gust
km/h
Spd
kts
Gust
kts
27/01:30am - - - - - SW 13 17 7 9 - - -
27/01:00am - - - - - SSW 13 15 7 8 - - -
27/12:30am - - - - - S 11 15 6 8 - - -
27/12:00am - - - - - S 13 15 7 8 - - -
 
Date/Time
EST
Temp
°C
App
Temp
°C
Dew
Point
°C
Rel
Hum
%
Delta-T
°C
Wind Press
QNH
hPa
Press
MSL
hPa
Rain since
9am
mm
Dir  Spd
km/h
Gust
km/h
Spd
kts
Gust
kts
26/11:30pm - - - - - SSW 13 15 7 8 - - -
26/11:00pm - - - - - SW 11 13 6 7 - - -
26/10:30pm - - - - - SW 9 9 5 5 - - -
26/10:00pm - - - - - SW 7 7 4 4 - - -
26/09:30pm - - - - - SW 7 9 4 5 - - -
26/09:00pm - - - - - SSE 4 6 2 3 - - -
26/08:30pm - - - - - ESE 11 13 6 7 - - -
26/08:00pm - - - - - ESE 15 17 8 9 - - -
26/07:30pm - - - - - ESE 17 20 9 11 - - -
26/07:00pm - - - - - ESE 19 20 10 11 - - -
26/06:30pm - - - - - ESE 19 20 10 11 - - -
26/06:00pm - - - - - ESE 20 22 11 12 - - -
26/05:30pm - - - - - ESE 20 22 11 12 - - -
26/05:00pm - - - - - ESE 19 22 10 12 - - -
26/04:30pm - - - - - ESE 11 13 6 7 - - -
26/04:00pm - - - - - ESE 13 15 7 8 - - -
26/03:30pm - - - - - E 9 13 5 7 - - -
26/03:00pm - - - - - E 7 7 4 4 - - -
26/02:30pm - - - - - E 7 11 4 6 - - -
26/02:00pm - - - - - E 7 9 4 5 - - -
26/01:30pm - - - - - CALM 0 6 0 3 - - -
26/01:00pm - - - - - CALM 0 0 0 0 - - -
26/12:30pm - - - - - CALM 0 0 0 0 - - -
26/12:00pm - - - - - S 4 4 2 2 - - -
26/11:30am - - - - - S 4 6 2 3 - - -
26/11:00am - - - - - S 4 6 2 3 - - -
26/10:30am - - - - - SSW 4 6 2 3 - - -
26/10:00am - - - - - SSW 6 7 3 4 - - -
26/09:30am - - - - - SSW 6 7 3 4 - - -
26/09:00am - - - - - SW 7 9 4 5 - - -
26/08:30am - - - - - SW 11 15 6 8 - - -
26/08:00am - - - - - SW 9 11 5 6 - - -
26/07:30am - - - - - SSW 7 9 4 5 - - -
26/07:00am - - - - - SW 9 11 5 6 - - -
26/06:30am - - - - - SW 9 13 5 7 - - -
26/06:00am - - - - - SW 11 13 6 7 - - -
26/05:30am - - - - - SW 11 13 6 7 - - -
26/05:00am - - - - - SW 13 15 7 8 - - -
26/04:30am - - - - - WSW 11 13 6 7 - - -
26/04:00am - - - - - WSW 11 11 6 6 - - -
26/03:30am - - - - - W 6 7 3 4 - - -
26/03:00am - - - - - SW 4 6 2 3 - - -
26/02:30am - - - - - SSW 6 6 3 3 - - -
26/02:00am - - - - - SSW 9 11 5 6 - - -
26/01:30am - - - - - SW 9 11 5 6 - - -
26/01:00am - - - - - WSW 6 9 3 5 - - -
26/12:30am - - - - - W 4 6 2 3 - - -
26/12:00am - - - - - NW 4 6 2 3 - - -
 
Date/Time
EST
Temp
°C
App
Temp
°C
Dew
Point
°C
Rel
Hum
%
Delta-T
°C
Wind Press
QNH
hPa
Press
MSL
hPa
Rain since
9am
mm
Dir  Spd
km/h
Gust
km/h
Spd
kts
Gust
kts
25/11:30pm - - - - - WNW 4 4 2 2 - - -
25/11:00pm - - - - - W 6 6 3 3 - - -
25/10:30pm - - - - - W 6 7 3 4 - - -
25/10:00pm - - - - - W 7 7 4 4 - - -
25/09:30pm - - - - - NNW 7 9 4 5 - - -
25/09:00pm - - - - - N 7 9 4 5 - - -
25/08:30pm - - - - - NNE 9 9 5 5 - - -
25/08:00pm - - - - - NNE 9 9 5 5 - - -
25/07:30pm - - - - - NE 7 9 4 5 - - -
25/07:00pm - - - - - NE 9 9 5 5 - - -
25/06:30pm - - - - - NE 11 11 6 6 - - -
25/06:00pm - - - - - NE 9 11 5 6 - - -
25/05:30pm - - - - - NE 7 9 4 5 - - -
25/05:00pm - - - - - NE 9 9 5 5 - - -
25/04:30pm - - - - - NE 9 9 5 5 - - -
25/04:00pm - - - - - NE 6 7 3 4 - - -
25/03:30pm - - - - - ENE 4 6 2 3 - - -
25/03:00pm - - - - - NE 4 4 2 2 - - -
25/02:30pm - - - - - NE 4 4 2 2 - - -
25/02:00pm - - - - - NE 6 6 3 3 - - -
25/01:30pm - - - - - E 2 4 1 2 - - -
25/01:00pm - - - - - SSE 2 4 1 2 - - -
25/12:30pm - - - - - S 4 4 2 2 - - -
25/12:00pm - - - - - S 7 9 4 5 - - -
25/11:30am - - - - - S 7 7 4 4 - - -
25/11:00am - - - - - SSW 7 9 4 5 - - -
25/10:30am - - - - - SW 9 9 5 5 - - -
25/10:00am - - - - - SSW 11 13 6 7 - - -
25/09:30am - - - - - SSW 11 15 6 8 - - -
25/09:00am - - - - - SSW 11 13 6 7 - - -
25/08:30am - - - - - SSW 11 15 6 8 - - -
25/08:00am - - - - - SW 15 17 8 9 - - -
25/07:30am - - - - - SW 15 17 8 9 - - -
25/07:00am - - - - - SSW 11 15 6 8 - - -
25/06:30am - - - - - SSW 19 20 10 11 - - -
25/06:00am - - - - - SSW 22 26 12 14 - - -
25/05:30am - - - - - SSW 17 20 9 11 - - -
25/05:00am - - - - - SSW 19 22 10 12 - - -
25/04:30am - - - - - SSW 13 17 7 9 - - -
25/04:00am - - - - - SSW 15 17 8 9 - - -
25/03:30am - - - - - SSW 15 17 8 9 - - -
25/03:00am - - - - - SSW 13 15 7 8 - - -
25/02:30am - - - - - SSW 7 9 4 5 - - -
25/02:00am - - - - - SSW 9 9 5 5 - - -
25/01:30am - - - - - SSW 11 13 6 7 - - -
25/01:00am - - - - - SW 9 11 5 6 - - -
25/12:30am - - - - - SW 11 11 6 6 - - -
25/12:00am - - - - - SW 11 13 6 7 - - -
 
Date/Time
EST
Temp
°C
App
Temp
°C
Dew
Point
°C
Rel
Hum
%
Delta-T
°C
Wind Press
QNH
hPa
Press
MSL
hPa
Rain since
9am
mm
Dir  Spd
km/h
Gust
km/h
Spd
kts
Gust
kts
24/11:30pm - - - - - WSW 9 9 5 5 - - -
24/11:00pm - - - - - WSW 7 11 4 6 - - -
24/10:30pm - - - - - SE 7 9 4 5 - - -
24/10:00pm - - - - - SE 6 7 3 4 - - -
24/09:30pm - - - - - ESE 9 13 5 7 - - -
24/09:00pm - - - - - ESE 11 11 6 6 - - -
24/08:30pm - - - - - E 6 7 3 4 - - -
24/08:00pm - - - - - E 7 9 4 5 - - -
24/07:30pm - - - - - E 11 11 6 6 - - -
24/07:00pm - - - - - E 9 11 5 6 - - -
24/06:30pm - - - - - E 11 13 6 7 - - -
24/06:00pm - - - - - ENE 13 13 7 7 - - -
24/05:30pm - - - - - ENE 9 11 5 6 - - -
24/05:00pm - - - - - N 2 4 1 2 - - -
24/04:30pm - - - - - N 7 7 4 4 - - -
24/04:00pm - - - - - N 6 6 3 3 - - -
24/03:30pm - - - - - NNE 7 9 4 5 - - -
24/03:00pm - - - - - NE 9 11 5 6 - - -
24/02:30pm - - - - - NE 7 9 4 5 - - -
24/02:00pm - - - - - ENE 7 9 4 5 - - -
24/01:30pm - - - - - NE 6 7 3 4 - - -
24/01:00pm - - - - - NNE 4 6 2 3 - - -
24/12:30pm - - - - - ENE 6 9 3 5 - - -
24/12:00pm - - - - - SW 9 9 5 5 - - -
24/11:30am - - - - - WSW 13 13 7 7 - - -
24/11:00am - - - - - SW 11 15 6 8 - - -
24/10:30am - - - - - SW 15 17 8 9 - - -
24/10:00am - - - - - W 7 9 4 5 - - -
24/09:30am - - - - - WSW 6 7 3 4 - - -
24/09:00am - - - - - WSW 9 9 5 5 - - -
24/08:30am - - - - - WSW 11 13 6 7 - - -
24/08:00am - - - - - WSW 9 13 5 7 - - -
24/07:30am - - - - - WSW 9 11 5 6 - - -
24/07:00am - - - - - W 11 13 6 7 - - -
24/06:30am - - - - - W 11 13 6 7 - - -
24/06:00am - - - - - W 9 11 5 6 - - -
24/05:30am - - - - - WNW 9 11 5 6 - - -
24/05:00am - - - - - WNW 7 9 4 5 - - -
24/04:30am - - - - - NW 11 13 6 7 - - -
24/04:00am - - - - - NW 13 15 7 8 - - -
24/03:30am - - - - - NW 15 17 8 9 - - -
24/03:00am - - - - - NW 15 17 8 9 - - -
24/02:30am - - - - - NNW 17 19 9 10 - - -
24/02:00am - - - - - NW 13 15 7 8 - - -

Other Formats:

Comma delimited format used in spreadsheet applications
http://www.bom.gov.au/fwo/IDQ60801/IDQ60801.94590.axf

JavaScript Object Notation format (JSON) in row-major order
http://www.bom.gov.au/fwo/IDQ60801/IDQ60801.94590.json